Weather History for Freeport, IL

Change the Weather History Date:

Wednesday, August 7, 2013

  Actual Average Record
Temperature  
Mean Temperature 74 °F -  
Max Temperature 84 °F 80 °F 94 °F (1984)
Min Temperature 64 °F 58 °F 48 °F (1976)
Cooling Degree Days 9    
Growing Degree Days 24 (Base 50)    
Moisture  
Dew Point 69 °F    
Average Humidity 79    
Maximum Humidity 95    
Minimum Humidity 47    
Precipitation  
Precipitation 0.00 in - - ()
Sea Level Pressure  
Sea Level Pressure 29.89 in    
Wind  
Wind Speed 9 mph (WNW)    
Max Wind Speed 14 mph    
Max Gust Speed 17 mph    
Visibility 9 miles    
Events Rain    
Averages and records for this station are not official NWS values.
T = Trace of Precipitation, MM = Missing Value Source: NWS Daily Summary

Daily Weather History Graph

Daily Weather History Graph

Search for Another Location

Airport:

Trip Planner

Search our weather history database for the weather conditions in past years. The results will help you decide how hot, cold, wet, or windy it might be!

Date:

Astronomy

Aug. 07, 2013 Rise Set
Actual Time 5:57 AM CDT 8:09 PM CDT
Civil Twilight 5:26 AM CDT 8:40 PM CDT
Nautical Twilight 4:48 AM CDT 9:18 PM CDT
Astronomical Twilight 4:06 AM CDT 10:00 PM CDT
Moon 6:48 AM CDT (8/7) 8:14 PM CDT (8/7)
Length of Visible Light 15h 14m
Length of Day
14h 12m
New Moon, 1% of the Moon is Illuminated
Aug 7
New Moon
Aug 14
First Quarter
Aug 20
Full
Aug 28
Last Quarter
Sep 5
New

Hourly Weather History & Observations

Time (CDT) Temp. Heat Index Dew Point Humidity Pressure Visibility Wind Dir Wind Speed Gust Speed Precip Events Conditions
12:15 AM 74.3 °F - 72.0 °F 92% 29.85 in 7.0 mi SSW 11.5 mph - N/A   Clear
12:35 AM 74.3 °F - 72.0 °F 92% 29.84 in 7.0 mi SSW 13.8 mph - N/A   Clear
12:55 AM 74.3 °F - 72.0 °F 92% 29.84 in 7.0 mi SSW 13.8 mph - N/A   Clear
1:15 AM 74.3 °F - 72.0 °F 92% 29.84 in 7.0 mi SSW 10.4 mph - N/A   Clear
1:35 AM 74.3 °F - 72.0 °F 92% 29.83 in 7.0 mi SSW 9.2 mph - N/A Rain Light Rain
1:55 AM 74.3 °F - 72.1 °F 93% 29.83 in 7.0 mi SSW 9.2 mph - N/A   Clear
2:15 AM 74.3 °F - 72.1 °F 93% 29.84 in 7.0 mi SSW 11.5 mph - N/A   Clear
2:35 AM 74.3 °F - 72.1 °F 93% 29.83 in 7.0 mi SW 10.4 mph - N/A   Clear
2:55 AM 74.3 °F - 72.1 °F 93% 29.82 in 7.0 mi SW 9.2 mph - N/A   Clear
3:15 AM 74.3 °F - 72.5 °F 94% 29.82 in 5.0 mi SSW 8.1 mph - N/A   Clear
3:35 AM 74.3 °F - 72.5 °F 94% 29.82 in 7.0 mi SW 10.4 mph - N/A   Clear
3:55 AM 74.3 °F - 72.5 °F 94% 29.82 in 5.0 mi SW 11.5 mph - N/A   Clear
4:15 AM 74.3 °F - 72.5 °F 94% 29.82 in 5.0 mi SW 11.5 mph - N/A   Clear
4:35 AM 74.3 °F - 72.5 °F 94% 29.82 in 5.0 mi SW 8.1 mph - N/A   Clear
4:55 AM 74.3 °F - 72.5 °F 94% 29.82 in 4.0 mi SW 6.9 mph - N/A   Clear
5:15 AM 74.3 °F - 72.5 °F 94% 29.82 in 4.0 mi SW 6.9 mph - N/A   Clear
5:35 AM 74.3 °F - 72.5 °F 94% 29.82 in 4.0 mi SW 6.9 mph - N/A   Clear
5:55 AM 74.3 °F - 72.5 °F 94% 29.83 in 4.0 mi SW 8.1 mph - N/A   Clear
6:15 AM 73.8 °F - 72.1 °F 95% 29.83 in 3.0 mi WSW 5.8 mph - N/A   Clear
6:35 AM 74.3 °F - 72.5 °F 94% 29.84 in 5.0 mi SW 6.9 mph - N/A   Clear
6:55 AM 74.3 °F - 72.1 °F 93% 29.84 in 5.0 mi SW 8.1 mph - N/A   Clear
7:15 AM 74.3 °F - 72.3 °F 94% 29.84 in 5.0 mi SW 8.1 mph - N/A   Clear
7:35 AM 74.3 °F - 71.8 °F 92% 29.85 in 10.0 mi SW 9.2 mph - N/A   Scattered Clouds
7:55 AM 74.3 °F - 71.1 °F 90% 29.85 in 10.0 mi SW 8.1 mph - N/A   Scattered Clouds
8:15 AM 75.6 °F - 71.8 °F 88% 29.86 in 10.0 mi SW 11.5 mph - N/A   Clear
8:35 AM 76.5 °F - 72.3 °F 87% 29.86 in 10.0 mi SW 8.1 mph - N/A   Clear
8:55 AM 79.3 °F - 73.9 °F 83% 29.86 in 10.0 mi WSW 6.9 mph - N/A   Clear
9:15 AM 79.3 °F - 73.9 °F 83% 29.86 in 10.0 mi West 6.9 mph - N/A   Scattered Clouds
9:35 AM 79.3 °F - 73.6 °F 82% 29.86 in 10.0 mi West 6.9 mph - N/A   Scattered Clouds
9:55 AM 79.3 °F - 72.7 °F 80% 29.86 in 10.0 mi WNW 5.8 mph - N/A   Clear
10:15 AM 79.9 °F - 72.5 °F 78% 29.87 in 10.0 mi West 6.9 mph - N/A   Scattered Clouds
10:35 AM 80.2 °F 84.5 °F 72.9 °F 78% 29.87 in 10.0 mi NW 5.8 mph - N/A   Scattered Clouds
10:55 AM 79.3 °F - 71.6 °F 77% 29.89 in 10.0 mi WNW 6.9 mph - N/A   Mostly Cloudy
11:15 AM 81.9 °F 87.5 °F 73.8 °F 76% 29.89 in 10.0 mi West 3.5 mph - N/A   Overcast
11:35 AM 81.9 °F 86.8 °F 72.3 °F 73% 29.89 in 10.0 mi West 6.9 mph - N/A   Mostly Cloudy
11:55 AM 81.9 °F 86.4 °F 71.6 °F 71% 29.89 in 10.0 mi West 4.6 mph - N/A   Mostly Cloudy
12:15 PM 81.9 °F 85.8 °F 70.3 °F 68% 29.89 in 10.0 mi West 10.4 mph - N/A   Scattered Clouds
12:35 PM 84.4 °F 88.7 °F 70.2 °F 62% 29.89 in 10.0 mi WNW 10.4 mph - N/A   Scattered Clouds
12:55 PM 84.4 °F 88.5 °F 69.6 °F 61% 29.89 in 10.0 mi NW 9.2 mph - N/A   Scattered Clouds
1:15 PM 84.4 °F 88.2 °F 69.3 °F 60% 29.89 in 10.0 mi NW 10.4 mph 17.3 mph N/A   Scattered Clouds
1:35 PM 84.4 °F 87.1 °F 67.3 °F 56% 29.89 in 10.0 mi NNW 11.5 mph - N/A   Scattered Clouds
1:55 PM 84.4 °F 86.3 °F 65.7 °F 53% 29.89 in 10.0 mi NW 10.4 mph - N/A   Clear
2:15 PM 84.4 °F 85.0 °F 62.4 °F 47% 29.89 in 10.0 mi NW 12.7 mph - N/A   Clear
2:35 PM 84.6 °F 86.1 °F 64.6 °F 51% 29.89 in 10.0 mi NW 10.4 mph 17.3 mph N/A   Clear
2:55 PM 84.4 °F 86.6 °F 66.0 °F 54% 29.89 in 10.0 mi North 10.4 mph - N/A   Mostly Cloudy
3:15 PM 84.4 °F 86.1 °F 64.9 °F 52% 29.89 in 10.0 mi NNW 4.6 mph - N/A   Scattered Clouds
3:35 PM 83.1 °F 84.8 °F 64.9 °F 54% 29.89 in 10.0 mi NNW 10.4 mph - N/A   Scattered Clouds
3:55 PM 84.4 °F 86.3 °F 65.5 °F 53% 29.90 in 10.0 mi NNW 6.9 mph - N/A   Scattered Clouds
4:15 PM 82.0 °F 83.4 °F 64.0 °F 54% 29.90 in 10.0 mi NNW 10.4 mph - N/A   Scattered Clouds
4:35 PM 84.4 °F 86.3 °F 65.3 °F 53% 29.90 in 10.0 mi North 9.2 mph 16.1 mph N/A   Scattered Clouds
4:55 PM 81.9 °F 83.7 °F 65.1 °F 57% 29.90 in 10.0 mi North 9.2 mph - N/A   Mostly Cloudy
5:15 PM 79.3 °F - 66.7 °F 65% 29.91 in 10.0 mi North 9.2 mph - N/A   Mostly Cloudy
5:35 PM 79.3 °F - 67.8 °F 68% 29.91 in 10.0 mi NNE 12.7 mph 16.1 mph N/A   Scattered Clouds
5:55 PM 79.3 °F - 68.5 °F 69% 29.91 in 10.0 mi NNE 11.5 mph 17.3 mph N/A   Clear
6:15 PM 79.3 °F - 68.2 °F 69% 29.92 in 10.0 mi North 9.2 mph 16.1 mph N/A   Clear
6:35 PM 77.5 °F - 66.7 °F 69% 29.93 in 10.0 mi North 8.1 mph - N/A   Clear
6:55 PM 76.5 °F - 65.7 °F 69% 29.94 in 10.0 mi North 8.1 mph - N/A   Clear
7:15 PM 74.3 °F - 64.4 °F 71% 29.94 in 10.0 mi NNE 8.1 mph - N/A   Clear
7:35 PM 74.3 °F - 64.8 °F 72% 29.96 in 10.0 mi North 5.8 mph - N/A   Clear
7:55 PM 74.3 °F - 66.2 °F 76% 29.96 in 10.0 mi North 3.5 mph - N/A   Clear
8:15 PM 69.3 °F - 64.2 °F 84% 29.97 in 10.0 mi NNW 4.6 mph - N/A   Clear
8:35 PM 68.7 °F - 64.0 °F 85% 29.97 in 10.0 mi NNW 5.8 mph - N/A   Clear
8:55 PM 69.3 °F - 63.9 °F 83% 29.98 in 10.0 mi Calm Calm - N/A   Clear
9:15 PM 66.9 °F - 62.1 °F 84% 29.99 in 10.0 mi North 4.6 mph - N/A   Clear
9:35 PM 67.3 °F - 62.4 °F 84% 29.99 in 10.0 mi North 3.5 mph - N/A   Clear
9:55 PM 66.2 °F - 61.9 °F 86% 29.99 in 10.0 mi Calm Calm - N/A   Clear
10:15 PM 65.1 °F - 61.7 °F 89% 30.00 in 10.0 mi NNW 3.5 mph - N/A   Clear
10:35 PM 65.1 °F - 61.5 °F 88% 30.00 in 10.0 mi North 3.5 mph - N/A   Clear
10:55 PM 65.3 °F - 61.2 °F 86% 30.00 in 10.0 mi North 3.5 mph - N/A   Clear
11:15 PM 64.0 °F - 60.8 °F 89% 30.00 in 10.0 mi Calm Calm - N/A   Clear
11:35 PM 65.3 °F - 61.7 °F 88% 30.01 in 10.0 mi Calm Calm - N/A   Clear
11:55 PM 64.0 °F - 60.8 °F 89% 30.00 in 10.0 mi Calm Calm - N/A   Clear